sensor_id;sensor_type;location;lat;lon;timestamp;pressure;altitude;pressure_sealevel;temperature;humidity
60015;BME280;45867;52.480;6.056;2022-11-12T00:00:53;103181.03;;;3.77;100.00
60015;BME280;45867;52.480;6.056;2022-11-12T00:03:20;103181.16;;;3.67;100.00
60015;BME280;45867;52.480;6.056;2022-11-12T00:05:47;103177.56;;;3.60;100.00
60015;BME280;45867;52.480;6.056;2022-11-12T00:08:14;103171.34;;;3.61;100.00
60015;BME280;45867;52.480;6.056;2022-11-12T00:10:40;103181.81;;;3.61;100.00
60015;BME280;45867;52.480;6.056;2022-11-12T00:13:07;103175.09;;;3.50;100.00
60015;BME280;45867;52.480;6.056;2022-11-12T00:15:36;103176.09;;;3.58;100.00
60015;BME280;45867;52.480;6.056;2022-11-12T00:18:05;103177.72;;;3.50;100.00
60015;BME280;45867;52.480;6.056;2022-11-12T00:20:34;103170.63;;;3.34;100.00
60015;BME280;45867;52.480;6.056;2022-11-12T00:23:01;103177.66;;;3.34;100.00
60015;BME280;45867;52.480;6.056;2022-11-12T00:25:30;103183.38;;;3.29;100.00
60015;BME280;45867;52.480;6.056;2022-11-12T00:28:05;103181.28;;;3.33;100.00
60015;BME280;45867;52.480;6.056;2022-11-12T00:30:33;103183.38;;;3.29;100.00
60015;BME280;45867;52.480;6.056;2022-11-12T00:33:03;103183.34;;;3.21;100.00
60015;BME280;45867;52.480;6.056;2022-11-12T00:35:32;103183.00;;;3.16;100.00
60015;BME280;45867;52.480;6.056;2022-11-12T00:37:59;103179.78;;;3.22;100.00
60015;BME280;45867;52.480;6.056;2022-11-12T00:40:26;103179.78;;;3.22;100.00
60015;BME280;45867;52.480;6.056;2022-11-12T00:42:53;103181.09;;;3.26;100.00
60015;BME280;45867;52.480;6.056;2022-11-12T00:45:22;103184.03;;;3.31;100.00
60015;BME280;45867;52.480;6.056;2022-11-12T00:47:55;103179.78;;;3.30;100.00
60015;BME280;45867;52.480;6.056;2022-11-12T00:50:22;103184.50;;;3.27;100.00
60015;BME280;45867;52.480;6.056;2022-11-12T00:52:51;103190.78;;;3.34;100.00
60015;BME280;45867;52.480;6.056;2022-11-12T00:55:18;103186.31;;;3.26;100.00
60015;BME280;45867;52.480;6.056;2022-11-12T00:58:02;103190.72;;;3.18;100.00
60015;BME280;45867;52.480;6.056;2022-11-12T01:00:27;103197.25;;;3.14;100.00
60015;BME280;45867;52.480;6.056;2022-11-12T01:02:53;103191.34;;;3.11;100.00
60015;BME280;45867;52.480;6.056;2022-11-12T01:05:19;103193.97;;;3.11;100.00
60015;BME280;45867;52.480;6.056;2022-11-12T01:07:46;103187.41;;;3.07;100.00
60015;BME280;45867;52.480;6.056;2022-11-12T01:10:13;103188.53;;;3.05;100.00
60015;BME280;45867;52.480;6.056;2022-11-12T01:12:40;103180.97;;;2.94;100.00
60015;BME280;45867;52.480;6.056;2022-11-12T01:15:07;103186.72;;;3.05;100.00
60015;BME280;45867;52.480;6.056;2022-11-12T01:17:37;103190.38;;;3.13;100.00
60015;BME280;45867;52.480;6.056;2022-11-12T01:20:03;103177.97;;;3.23;100.00
60015;BME280;45867;52.480;6.056;2022-11-12T01:22:34;103181.09;;;3.26;100.00
60015;BME280;45867;52.480;6.056;2022-11-12T01:25:00;103181.78;;;3.37;100.00
60015;BME280;45867;52.480;6.056;2022-11-12T01:27:28;103172.59;;;3.41;100.00
60015;BME280;45867;52.480;6.056;2022-11-12T01:29:54;103179.00;;;3.46;100.00
60015;BME280;45867;52.480;6.056;2022-11-12T01:32:21;103185.25;;;3.53;100.00
60015;BME280;45867;52.480;6.056;2022-11-12T01:34:47;103185.06;;;3.47;100.00
60015;BME280;45867;52.480;6.056;2022-11-12T01:37:14;103179.47;;;3.33;100.00
60015;BME280;45867;52.480;6.056;2022-11-12T01:39:40;103176.97;;;3.24;100.00
60015;BME280;45867;52.480;6.056;2022-11-12T01:42:08;103173.34;;;3.08;100.00
60015;BME280;45867;52.480;6.056;2022-11-12T01:44:39;103177.59;;;3.09;100.00
60015;BME280;45867;52.480;6.056;2022-11-12T01:47:18;103172.63;;;2.98;100.00
60015;BME280;45867;52.480;6.056;2022-11-12T01:50:26;103179.31;;;2.93;100.00
60015;BME280;45867;52.480;6.056;2022-11-12T01:52:47;103179.66;;;2.89;100.00
60015;BME280;45867;52.480;6.056;2022-11-12T01:55:18;103165.03;;;2.79;100.00
60015;BME280;45867;52.480;6.056;2022-11-12T01:58:07;103168.91;;;2.75;100.00
60015;BME280;45867;52.480;6.056;2022-11-12T02:00:52;103177.41;;;2.69;100.00
60015;BME280;45867;52.480;6.056;2022-11-12T02:03:23;103174.59;;;2.62;100.00
60015;BME280;45867;52.480;6.056;2022-11-12T02:06:02;103172.13;;;2.60;100.00
60015;BME280;45867;52.480;6.056;2022-11-12T02:08:29;103175.25;;;2.64;100.00
60015;BME280;45867;52.480;6.056;2022-11-12T02:10:56;103166.31;;;2.75;100.00
60015;BME280;45867;52.480;6.056;2022-11-12T02:13:22;103169.44;;;2.78;100.00
60015;BME280;45867;52.480;6.056;2022-11-12T02:16:06;103159.75;;;2.71;100.00
60015;BME280;45867;52.480;6.056;2022-11-12T02:18:33;103170.00;;;2.64;100.00
60015;BME280;45867;52.480;6.056;2022-11-12T02:21:03;103176.69;;;2.58;100.00
60015;BME280;45867;52.480;6.056;2022-11-12T02:23:29;103173.56;;;2.55;100.00
60015;BME280;45867;52.480;6.056;2022-11-12T02:25:58;103159.63;;;2.46;100.00
60015;BME280;45867;52.480;6.056;2022-11-12T02:28:24;103171.88;;;2.46;100.00
60015;BME280;45867;52.480;6.056;2022-11-12T02:30:49;103165.63;;;2.38;100.00
60015;BME280;45867;52.480;6.056;2022-11-12T02:33:15;103172.78;;;2.36;100.00
60015;BME280;45867;52.480;6.056;2022-11-12T02:35:40;103167.88;;;2.33;100.00
60015;BME280;45867;52.480;6.056;2022-11-12T02:38:07;103164.94;;;2.36;100.00
60015;BME280;45867;52.480;6.056;2022-11-12T02:40:32;103154.91;;;2.32;100.00
60015;BME280;45867;52.480;6.056;2022-11-12T02:42:58;103158.03;;;2.27;100.00
60015;BME280;45867;52.480;6.056;2022-11-12T02:45:24;103153.91;;;2.25;100.00
60015;BME280;45867;52.480;6.056;2022-11-12T02:47:50;103154.88;;;2.23;100.00
60015;BME280;45867;52.480;6.056;2022-11-12T02:50:16;103148.63;;;2.16;100.00
60015;BME280;45867;52.480;6.056;2022-11-12T02:52:44;103142.34;;;2.09;100.00
60015;BME280;45867;52.480;6.056;2022-11-12T02:55:11;103154.97;;;2.14;100.00
60015;BME280;45867;52.480;6.056;2022-11-12T02:57:38;103151.44;;;2.23;100.00
60015;BME280;45867;52.480;6.056;2022-11-12T03:00:05;103157.84;;;2.29;100.00
60015;BME280;45867;52.480;6.056;2022-11-12T03:02:31;103162.88;;;2.22;100.00
60015;BME280;45867;52.480;6.056;2022-11-12T03:04:56;103174.91;;;2.33;100.00
60015;BME280;45867;52.480;6.056;2022-11-12T03:07:22;103163.66;;;2.40;100.00
60015;BME280;45867;52.480;6.056;2022-11-12T03:09:47;103166.97;;;2.51;100.00
60015;BME280;45867;52.480;6.056;2022-11-12T03:12:12;103159.31;;;2.49;100.00
60015;BME280;45867;52.480;6.056;2022-11-12T03:14:38;103158.75;;;2.37;100.00
60015;BME280;45867;52.480;6.056;2022-11-12T03:17:04;103160.94;;;2.24;100.00
60015;BME280;45867;52.480;6.056;2022-11-12T03:19:29;103159.97;;;2.25;100.00
60015;BME280;45867;52.480;6.056;2022-11-12T03:21:54;103150.63;;;2.22;100.00
60015;BME280;45867;52.480;6.056;2022-11-12T03:24:20;103146.97;;;2.15;100.00
60015;BME280;45867;52.480;6.056;2022-11-12T03:26:45;103144.81;;;2.11;100.00
60015;BME280;45867;52.480;6.056;2022-11-12T03:29:11;103150.00;;;2.03;100.00
60015;BME280;45867;52.480;6.056;2022-11-12T03:31:37;103164.25;;;2.08;100.00
60015;BME280;45867;52.480;6.056;2022-11-12T03:34:03;103151.78;;;2.02;100.00
60015;BME280;45867;52.480;6.056;2022-11-12T03:36:29;103159.63;;;2.02;100.00
60015;BME280;45867;52.480;6.056;2022-11-12T03:38:54;103157.78;;;1.94;100.00
60015;BME280;45867;52.480;6.056;2022-11-12T03:41:20;103153.00;;;1.90;100.00
60015;BME280;45867;52.480;6.056;2022-11-12T03:43:45;103151.88;;;1.92;100.00
60015;BME280;45867;52.480;6.056;2022-11-12T03:46:10;103144.84;;;1.93;100.00
60015;BME280;45867;52.480;6.056;2022-11-12T03:48:36;103141.03;;;1.87;100.00
60015;BME280;45867;52.480;6.056;2022-11-12T03:51:02;103138.78;;;1.74;100.00
60015;BME280;45867;52.480;6.056;2022-11-12T03:53:27;103139.78;;;1.73;100.00
60015;BME280;45867;52.480;6.056;2022-11-12T03:55:53;103142.31;;;1.65;100.00
60015;BME280;45867;52.480;6.056;2022-11-12T03:58:18;103148.16;;;1.59;100.00
60015;BME280;45867;52.480;6.056;2022-11-12T04:00:44;103152.63;;;1.67;100.00
60015;BME280;45867;52.480;6.056;2022-11-12T04:03:10;103149.69;;;1.88;100.00
60015;BME280;45867;52.480;6.056;2022-11-12T04:05:35;103138.66;;;1.94;100.00
60015;BME280;45867;52.480;6.056;2022-11-12T04:08:21;103154.88;;;2.23;100.00
60015;BME280;45867;52.480;6.056;2022-11-12T04:11:14;103160.53;;;2.37;100.00
60015;BME280;45867;52.480;6.056;2022-11-12T04:13:42;103163.53;;;2.50;100.00
60015;BME280;45867;52.480;6.056;2022-11-12T04:16:15;103158.53;;;2.57;100.00
60015;BME280;45867;52.480;6.056;2022-11-12T04:19:01;103152.13;;;2.51;100.00
60015;BME280;45867;52.480;6.056;2022-11-12T04:21:48;103163.09;;;2.55;100.00
60015;BME280;45867;52.480;6.056;2022-11-12T04:24:31;103155.34;;;2.45;100.00
60015;BME280;45867;52.480;6.056;2022-11-12T04:29:47;103151.53;;;2.39;100.00
60015;BME280;45867;52.480;6.056;2022-11-12T04:32:33;103158.44;;;2.40;100.00
60015;BME280;45867;52.480;6.056;2022-11-12T04:34:59;103164.25;;;2.34;100.00
60015;BME280;45867;52.480;6.056;2022-11-12T04:37:27;103153.72;;;2.44;100.00
60015;BME280;45867;52.480;6.056;2022-11-12T04:39:53;103147.44;;;2.63;100.00
60015;BME280;45867;52.480;6.056;2022-11-12T04:42:19;103151.72;;;2.72;100.00
60015;BME280;45867;52.480;6.056;2022-11-12T04:45:06;103147.31;;;2.73;100.00
60015;BME280;45867;52.480;6.056;2022-11-12T04:47:37;103151.53;;;2.65;100.00
60015;BME280;45867;52.480;6.056;2022-11-12T04:50:14;103157.22;;;2.61;100.00
60015;BME280;45867;52.480;6.056;2022-11-12T04:52:40;103146.22;;;2.49;100.00
60015;BME280;45867;52.480;6.056;2022-11-12T04:55:06;103156.50;;;2.51;100.00
60015;BME280;45867;52.480;6.056;2022-11-12T04:57:40;103154.06;;;2.49;100.00
60015;BME280;45867;52.480;6.056;2022-11-12T05:00:06;103166.47;;;2.47;100.00
60015;BME280;45867;52.480;6.056;2022-11-12T05:02:31;103167.25;;;2.39;100.00
60015;BME280;45867;52.480;6.056;2022-11-12T05:04:56;103174.72;;;2.34;100.00
60015;BME280;45867;52.480;6.056;2022-11-12T05:07:22;103167.66;;;2.27;100.00
60015;BME280;45867;52.480;6.056;2022-11-12T05:09:47;103165.19;;;2.25;100.00
60015;BME280;45867;52.480;6.056;2022-11-12T05:12:13;103162.56;;;2.25;100.00
60015;BME280;45867;52.480;6.056;2022-11-12T05:14:38;103163.19;;;2.19;100.00
60015;BME280;45867;52.480;6.056;2022-11-12T05:17:04;103160.03;;;2.15;100.00
60015;BME280;45867;52.480;6.056;2022-11-12T05:19:30;103159.47;;;2.04;100.00
60015;BME280;45867;52.480;6.056;2022-11-12T05:21:55;103157.97;;;2.01;100.00
60015;BME280;45867;52.480;6.056;2022-11-12T05:24:41;103159.34;;;2.05;100.00
60015;BME280;45867;52.480;6.056;2022-11-12T05:27:13;103151.47;;;2.05;100.00
60015;BME280;45867;52.480;6.056;2022-11-12T05:29:39;103141.84;;;2.06;100.00
60015;BME280;45867;52.480;6.056;2022-11-12T05:32:07;103148.69;;;2.07;100.00
60015;BME280;45867;52.480;6.056;2022-11-12T05:34:32;103147.22;;;2.04;100.00
60015;BME280;45867;52.480;6.056;2022-11-12T05:36:58;103149.06;;;2.12;100.00
60015;BME280;45867;52.480;6.056;2022-11-12T05:39:23;103136.59;;;2.06;100.00
60015;BME280;45867;52.480;6.056;2022-11-12T05:41:49;103139.84;;;1.99;100.00
60015;BME280;45867;52.480;6.056;2022-11-12T05:44:14;103143.72;;;1.95;100.00
60015;BME280;45867;52.480;6.056;2022-11-12T05:46:39;103134.78;;;1.80;100.00
60015;BME280;45867;52.480;6.056;2022-11-12T05:49:05;103134.94;;;1.78;100.00
60015;BME280;45867;52.480;6.056;2022-11-12T05:51:30;103127.91;;;1.79;100.00
60015;BME280;45867;52.480;6.056;2022-11-12T05:53:56;103138.22;;;1.81;100.00
60015;BME280;45867;52.480;6.056;2022-11-12T05:56:21;103125.22;;;1.71;100.00
60015;BME280;45867;52.480;6.056;2022-11-12T05:58:46;103139.84;;;1.82;100.00
60015;BME280;45867;52.480;6.056;2022-11-12T06:01:12;103129.09;;;1.85;100.00
60015;BME280;45867;52.480;6.056;2022-11-12T06:03:37;103124.31;;;1.80;100.00
60015;BME280;45867;52.480;6.056;2022-11-12T06:06:03;103126.78;;;1.82;100.00
60015;BME280;45867;52.480;6.056;2022-11-12T06:08:28;103107.44;;;1.74;100.00
60015;BME280;45867;52.480;6.056;2022-11-12T06:10:54;103127.28;;;1.85;100.00
60015;BME280;45867;52.480;6.056;2022-11-12T06:13:21;103128.13;;;1.86;100.00
60015;BME280;45867;52.480;6.056;2022-11-12T06:15:46;103130.38;;;1.81;100.00
60015;BME280;45867;52.480;6.056;2022-11-12T06:18:12;103134.25;;;1.76;100.00
60015;BME280;45867;52.480;6.056;2022-11-12T06:20:38;103136.94;;;1.85;100.00
60015;BME280;45867;52.480;6.056;2022-11-12T06:23:03;103127.91;;;1.79;100.00
60015;BME280;45867;52.480;6.056;2022-11-12T06:25:29;103145.59;;;1.85;100.00
60015;BME280;45867;52.480;6.056;2022-11-12T06:27:54;103128.66;;;1.71;100.00
60015;BME280;45867;52.480;6.056;2022-11-12T06:30:19;103147.31;;;1.76;100.00
60015;BME280;45867;52.480;6.056;2022-11-12T06:32:46;103149.78;;;1.78;100.00
60015;BME280;45867;52.480;6.056;2022-11-12T06:35:11;103151.72;;;1.76;100.00
60015;BME280;45867;52.480;6.056;2022-11-12T06:37:40;103135.66;;;1.71;100.00
60015;BME280;45867;52.480;6.056;2022-11-12T06:40:06;103146.13;;;1.71;100.00
60015;BME280;45867;52.480;6.056;2022-11-12T06:42:31;103146.28;;;1.69;100.00
60015;BME280;45867;52.480;6.056;2022-11-12T06:44:57;103149.84;;;1.68;100.00
60015;BME280;45867;52.480;6.056;2022-11-12T06:47:22;103144.94;;;1.65;100.00
60015;BME280;45867;52.480;6.056;2022-11-12T06:49:47;103153.75;;;1.64;100.00
60015;BME280;45867;52.480;6.056;2022-11-12T06:52:14;103151.44;;;1.61;100.00
60015;BME280;45867;52.480;6.056;2022-11-12T06:54:40;103149.66;;;1.62;100.00
60015;BME280;45867;52.480;6.056;2022-11-12T06:57:07;103158.97;;;1.64;100.00
60015;BME280;45867;52.480;6.056;2022-11-12T06:59:33;103165.03;;;1.65;100.00
60015;BME280;45867;52.480;6.056;2022-11-12T07:01:58;103159.41;;;1.60;100.00
60015;BME280;45867;52.480;6.056;2022-11-12T07:04:24;103161.34;;;1.58;100.00
60015;BME280;45867;52.480;6.056;2022-11-12T07:06:49;103165.84;;;1.65;100.00
60015;BME280;45867;52.480;6.056;2022-11-12T07:09:15;103146.34;;;1.60;100.00
60015;BME280;45867;52.480;6.056;2022-11-12T07:11:40;103160.19;;;1.70;100.00
60015;BME280;45867;52.480;6.056;2022-11-12T07:14:06;103162.78;;;1.70;100.00
60015;BME280;45867;52.480;6.056;2022-11-12T07:16:32;103163.88;;;1.85;100.00
60015;BME280;45867;52.480;6.056;2022-11-12T07:18:57;103178.84;;;1.93;100.00
60015;BME280;45867;52.480;6.056;2022-11-12T07:21:23;103159.50;;;1.86;100.00
60015;BME280;45867;52.480;6.056;2022-11-12T07:23:48;103167.03;;;1.89;100.00
60015;BME280;45867;52.480;6.056;2022-11-12T07:26:19;103173.22;;;1.88;100.00
60015;BME280;45867;52.480;6.056;2022-11-12T07:28:46;103167.19;;;1.87;100.00
60015;BME280;45867;52.480;6.056;2022-11-12T07:31:14;103176.22;;;1.93;100.00
60015;BME280;45867;52.480;6.056;2022-11-12T07:33:40;103189.53;;;1.99;100.00
60015;BME280;45867;52.480;6.056;2022-11-12T07:36:08;103179.38;;;1.96;100.00
60015;BME280;45867;52.480;6.056;2022-11-12T07:38:36;103180.38;;;2.04;100.00
60015;BME280;45867;52.480;6.056;2022-11-12T07:41:07;103185.19;;;2.08;100.00
60015;BME280;45867;52.480;6.056;2022-11-12T07:43:34;103183.25;;;2.10;100.00
60015;BME280;45867;52.480;6.056;2022-11-12T07:46:04;103186.50;;;2.12;100.00
60015;BME280;45867;52.480;6.056;2022-11-12T07:48:30;103181.94;;;2.14;100.00
60015;BME280;45867;52.480;6.056;2022-11-12T07:51:00;103193.97;;;2.25;100.00
60015;BME280;45867;52.480;6.056;2022-11-12T07:53:26;103184.94;;;2.19;100.00
60015;BME280;45867;52.480;6.056;2022-11-12T07:55:56;103196.66;;;2.33;100.00
60015;BME280;45867;52.480;6.056;2022-11-12T07:58:26;103197.00;;;2.38;100.00
60015;BME280;45867;52.480;6.056;2022-11-12T08:00:52;103196.38;;;2.44;100.00
60015;BME280;45867;52.480;6.056;2022-11-12T08:03:18;103198.38;;;2.51;100.00
60015;BME280;45867;52.480;6.056;2022-11-12T08:05:44;103205.78;;;2.55;100.00
60015;BME280;45867;52.480;6.056;2022-11-12T08:08:10;103207.78;;;2.61;100.00
60015;BME280;45867;52.480;6.056;2022-11-12T08:10:36;103211.56;;;2.67;100.00
60015;BME280;45867;52.480;6.056;2022-11-12T08:13:02;103200.66;;;2.72;100.00
60015;BME280;45867;52.480;6.056;2022-11-12T08:15:28;103190.53;;;2.77;100.00
60015;BME280;45867;52.480;6.056;2022-11-12T08:17:53;103212.25;;;2.95;100.00
60015;BME280;45867;52.480;6.056;2022-11-12T08:20:18;103189.63;;;2.94;100.00
60015;BME280;45867;52.480;6.056;2022-11-12T08:22:44;103198.00;;;2.98;100.00
60015;BME280;45867;52.480;6.056;2022-11-12T08:25:09;103200.00;;;3.04;100.00
60015;BME280;45867;52.480;6.056;2022-11-12T08:27:35;103209.19;;;3.16;100.00
60015;BME280;45867;52.480;6.056;2022-11-12T08:30:01;103199.84;;;3.14;100.00
60015;BME280;45867;52.480;6.056;2022-11-12T08:32:26;103208.09;;;3.27;100.00
60015;BME280;45867;52.480;6.056;2022-11-12T08:34:54;103210.41;;;3.30;100.00
60015;BME280;45867;52.480;6.056;2022-11-12T08:37:19;103204.03;;;3.32;100.00
60015;BME280;45867;52.480;6.056;2022-11-12T08:39:45;103207.97;;;3.37;100.00
60015;BME280;45867;52.480;6.056;2022-11-12T08:42:10;103205.03;;;3.40;100.00
60015;BME280;45867;52.480;6.056;2022-11-12T08:44:35;103204.38;;;3.46;100.00
60015;BME280;45867;52.480;6.056;2022-11-12T08:47:01;103217.06;;;3.59;100.00
60015;BME280;45867;52.480;6.056;2022-11-12T08:49:26;103209.84;;;3.61;100.00
60015;BME280;45867;52.480;6.056;2022-11-12T08:51:53;103213.97;;;3.71;100.00
60015;BME280;45867;52.480;6.056;2022-11-12T08:54:19;103203.94;;;3.67;100.00
60015;BME280;45867;52.480;6.056;2022-11-12T08:56:44;103216.75;;;3.78;100.00
60015;BME280;45867;52.480;6.056;2022-11-12T08:59:10;103214.97;;;3.87;100.00
60015;BME280;45867;52.480;6.056;2022-11-12T09:01:35;103218.72;;;3.92;100.00
60015;BME280;45867;52.480;6.056;2022-11-12T09:04:01;103217.09;;;3.99;100.00
60015;BME280;45867;52.480;6.056;2022-11-12T09:06:26;103231.22;;;4.15;100.00
60015;BME280;45867;52.480;6.056;2022-11-12T09:08:52;103232.03;;;4.23;100.00
60015;BME280;45867;52.480;6.056;2022-11-12T09:11:17;103226.78;;;4.32;100.00
60015;BME280;45867;52.480;6.056;2022-11-12T09:13:42;103226.59;;;4.41;100.00
60015;BME280;45867;52.480;6.056;2022-11-12T09:16:08;103229.22;;;4.50;100.00
60015;BME280;45867;52.480;6.056;2022-11-12T09:18:34;103218.91;;;4.48;100.00
60015;BME280;45867;52.480;6.056;2022-11-12T09:21:10;103228.88;;;4.61;100.00
60015;BME280;45867;52.480;6.056;2022-11-12T09:23:39;103228.38;;;4.74;100.00
60015;BME280;45867;52.480;6.056;2022-11-12T09:26:05;103211.31;;;4.70;100.00
60015;BME280;45867;52.480;6.056;2022-11-12T09:28:31;103221.81;;;4.78;100.00
60015;BME280;45867;52.480;6.056;2022-11-12T09:30:57;103222.59;;;4.86;100.00
60015;BME280;45867;52.480;6.056;2022-11-12T09:33:29;103218.63;;;4.90;100.00
60015;BME280;45867;52.480;6.056;2022-11-12T09:35:55;103219.94;;;4.95;100.00
60015;BME280;45867;52.480;6.056;2022-11-12T09:38:21;103206.47;;;4.98;100.00
60015;BME280;45867;52.480;6.056;2022-11-12T09:40:52;103207.72;;;5.10;100.00
60015;BME280;45867;52.480;6.056;2022-11-12T09:43:36;103207.56;;;5.11;100.00
60015;BME280;45867;52.480;6.056;2022-11-12T09:46:33;103207.69;;;5.18;100.00
60015;BME280;45867;52.480;6.056;2022-11-12T09:49:33;103208.63;;;5.25;100.00
60015;BME280;45867;52.480;6.056;2022-11-12T09:52:13;103205.81;;;5.35;100.00
60015;BME280;45867;52.480;6.056;2022-11-12T09:54:41;103207.41;;;5.44;100.00
60015;BME280;45867;52.480;6.056;2022-11-12T09:57:17;103202.09;;;5.52;100.00
60015;BME280;45867;52.480;6.056;2022-11-12T09:59:43;103208.31;;;5.60;100.00
60015;BME280;45867;52.480;6.056;2022-11-12T10:05:02;103214.72;;;5.80;100.00
60015;BME280;45867;52.480;6.056;2022-11-12T10:07:52;103216.31;;;5.89;100.00
60015;BME280;45867;52.480;6.056;2022-11-12T10:10:37;103210.19;;;5.97;100.00
60015;BME280;45867;52.480;6.056;2022-11-12T10:21:33;103214.50;;;6.36;100.00
60015;BME280;45867;52.480;6.056;2022-11-12T10:24:00;103216.31;;;6.50;100.00
60015;BME280;45867;52.480;6.056;2022-11-12T10:26:26;103211.69;;;6.67;100.00
60015;BME280;45867;52.480;6.056;2022-11-12T10:29:00;103208.25;;;6.81;100.00
60015;BME280;45867;52.480;6.056;2022-11-12T10:31:30;103205.41;;;6.98;100.00
60015;BME280;45867;52.480;6.056;2022-11-12T10:34:16;103196.88;;;7.10;100.00
60015;BME280;45867;52.480;6.056;2022-11-12T10:36:45;103192.72;;;7.23;100.00
60015;BME280;45867;52.480;6.056;2022-11-12T10:42:09;103187.31;;;7.46;100.00
60015;BME280;45867;52.480;6.056;2022-11-12T10:44:37;103175.34;;;7.65;100.00
60015;BME280;45867;52.480;6.056;2022-11-12T10:50:03;103166.00;;;8.12;100.00
60015;BME280;45867;52.480;6.056;2022-11-12T10:52:33;103166.53;;;8.57;100.00
60015;BME280;45867;52.480;6.056;2022-11-12T10:55:15;103156.47;;;9.68;100.00
60015;BME280;45867;52.480;6.056;2022-11-12T10:57:44;103153.41;;;10.96;100.00
60015;BME280;45867;52.480;6.056;2022-11-12T11:02:50;103145.78;;;14.13;100.00
60015;BME280;45867;52.480;6.056;2022-11-12T11:05:31;103161.19;;;14.58;100.00
60015;BME280;45867;52.480;6.056;2022-11-12T11:07:57;103163.81;;;15.27;100.00
60015;BME280;45867;52.480;6.056;2022-11-12T11:10:34;103161.88;;;14.94;100.00
60015;BME280;45867;52.480;6.056;2022-11-12T11:13:25;103166.88;;;14.50;100.00
60015;BME280;45867;52.480;6.056;2022-11-12T11:16:05;103155.38;;;13.55;100.00
60015;BME280;45867;52.480;6.056;2022-11-12T11:18:36;103153.78;;;12.94;100.00
60015;BME280;45867;52.480;6.056;2022-11-12T11:21:50;103151.88;;;12.46;100.00
60015;BME280;45867;52.480;6.056;2022-11-12T11:23:56;103145.06;;;12.13;100.00
60015;BME280;45867;52.480;6.056;2022-11-12T11:29:43;103129.72;;;13.00;100.00
60015;BME280;45867;52.480;6.056;2022-11-12T11:32:40;103131.47;;;14.42;100.00
60015;BME280;45867;52.480;6.056;2022-11-12T11:35:58;103136.69;;;16.41;100.00
60015;BME280;45867;52.480;6.056;2022-11-12T11:44:39;103144.56;;;18.52;100.00
60015;BME280;45867;52.480;6.056;2022-11-12T11:52:45;103136.53;;;20.26;100.00
60015;BME280;45867;52.480;6.056;2022-11-12T12:01:21;103142.25;;;21.53;100.00
60015;BME280;45867;52.480;6.056;2022-11-12T12:03:54;103141.84;;;22.12;99.41
60015;BME280;45867;52.480;6.056;2022-11-12T12:06:26;103139.84;;;22.47;100.00
60015;BME280;45867;52.480;6.056;2022-11-12T12:09:02;103137.72;;;23.20;99.15
60015;BME280;45867;52.480;6.056;2022-11-12T12:19:44;103124.78;;;25.67;85.08
60015;BME280;45867;52.480;6.056;2022-11-12T12:22:18;103128.22;;;25.90;81.44
60015;BME280;45867;52.480;6.056;2022-11-12T12:24:55;103117.38;;;25.90;81.59
60015;BME280;45867;52.480;6.056;2022-11-12T12:27:26;103117.44;;;26.25;79.88
60015;BME280;45867;52.480;6.056;2022-11-12T12:30:30;103107.00;;;26.01;76.74
60015;BME280;45867;52.480;6.056;2022-11-12T12:32:59;103108.66;;;25.71;79.66
60015;BME280;45867;52.480;6.056;2022-11-12T12:35:30;103113.31;;;26.54;76.02
60015;BME280;45867;52.480;6.056;2022-11-12T12:38:13;103105.81;;;26.51;74.13
60015;BME280;45867;52.480;6.056;2022-11-12T12:43:54;103109.94;;;26.83;68.53
60015;BME280;45867;52.480;6.056;2022-11-12T12:46:26;103102.09;;;26.99;70.16
60015;BME280;45867;52.480;6.056;2022-11-12T12:48:55;103097.72;;;27.15;67.52
60015;BME280;45867;52.480;6.056;2022-11-12T12:51:31;103103.91;;;27.42;68.15
60015;BME280;45867;52.480;6.056;2022-11-12T12:53:57;103102.19;;;27.11;66.05
60015;BME280;45867;52.480;6.056;2022-11-12T12:58:54;103097.31;;;25.78;64.79
60015;BME280;45867;52.480;6.056;2022-11-12T13:20:14;103080.56;;;25.76;62.36
60015;BME280;45867;52.480;6.056;2022-11-12T13:32:53;103058.97;;;24.54;65.28
60015;BME280;45867;52.480;6.056;2022-11-12T13:35:35;103060.63;;;24.87;64.77
60015;BME280;45867;52.480;6.056;2022-11-12T13:43:17;103054.88;;;24.07;67.55
60015;BME280;45867;52.480;6.056;2022-11-12T13:45:47;103052.25;;;24.15;68.44
60015;BME280;45867;52.480;6.056;2022-11-12T13:48:20;103046.09;;;23.87;67.39
60015;BME280;45867;52.480;6.056;2022-11-12T13:50:50;103039.75;;;23.64;68.36
60015;BME280;45867;52.480;6.056;2022-11-12T13:53:21;103052.56;;;23.45;70.86
60015;BME280;45867;52.480;6.056;2022-11-12T13:55:52;103045.06;;;22.95;73.67
60015;BME280;45867;52.480;6.056;2022-11-12T13:58:26;103045.69;;;22.16;75.85
60015;BME280;45867;52.480;6.056;2022-11-12T14:00:54;103054.00;;;21.24;82.89
60015;BME280;45867;52.480;6.056;2022-11-12T14:03:20;103039.31;;;20.77;86.56
60015;BME280;45867;52.480;6.056;2022-11-12T14:05:47;103048.09;;;20.53;89.61
60015;BME280;45867;52.480;6.056;2022-11-12T14:11:16;103037.16;;;19.74;94.36
60015;BME280;45867;52.480;6.056;2022-11-12T14:16:40;103039.94;;;18.93;99.93
60015;BME280;45867;52.480;6.056;2022-11-12T14:19:36;103039.53;;;18.23;100.00
60015;BME280;45867;52.480;6.056;2022-11-12T14:22:15;103038.50;;;17.71;100.00
60015;BME280;45867;52.480;6.056;2022-11-12T14:24:41;103026.41;;;17.26;100.00
60015;BME280;45867;52.480;6.056;2022-11-12T14:27:43;103033.97;;;16.75;100.00
60015;BME280;45867;52.480;6.056;2022-11-12T14:32:38;103025.75;;;16.05;100.00
60015;BME280;45867;52.480;6.056;2022-11-12T14:35:27;103023.22;;;15.93;100.00
60015;BME280;45867;52.480;6.056;2022-11-12T14:38:02;103020.34;;;15.61;100.00
60015;BME280;45867;52.480;6.056;2022-11-12T14:40:31;103014.72;;;15.41;100.00
60015;BME280;45867;52.480;6.056;2022-11-12T14:42:57;103006.31;;;15.15;100.00